createdAt,value
2018-06-12T00:00:57.333Z,99867.75
2018-06-12T00:03:28.209Z,99877.73
2018-06-12T00:05:59.377Z,99879.53
2018-06-12T00:08:30.557Z,99882.52
2018-06-12T00:11:01.615Z,99872.59
2018-06-12T00:13:33.280Z,99878.13
2018-06-12T00:16:04.373Z,99882.08
2018-06-12T00:18:35.391Z,99885.70
2018-06-12T00:21:06.613Z,99883.16
2018-06-12T00:23:37.656Z,99884.50
2018-06-12T00:26:08.669Z,99891.38
2018-06-12T00:28:39.728Z,99888.76
2018-06-12T00:31:10.668Z,99888.73
2018-06-12T00:33:41.695Z,99885.76
2018-06-12T00:36:12.548Z,99884.45
2018-06-12T00:38:43.208Z,99883.84
2018-06-12T00:41:14.145Z,99881.05
2018-06-12T00:43:45.586Z,99889.72
2018-06-12T00:46:17.311Z,99893.17
2018-06-12T00:48:48.089Z,99896.41
2018-06-12T00:51:19.242Z,99903.41
2018-06-12T00:53:50.766Z,99906.16
2018-06-12T00:56:38.305Z,99911.92
2018-06-12T00:59:09.414Z,99900.50
2018-06-12T01:01:40.635Z,99910.22
2018-06-12T01:04:11.838Z,99916.66
2018-06-12T01:06:42.785Z,99911.98
2018-06-12T01:09:13.750Z,99916.91
2018-06-12T01:11:44.730Z,99915.50
2018-06-12T01:14:15.651Z,99926.79
2018-06-12T01:16:46.855Z,99931.66
2018-06-12T01:19:17.765Z,99932.94
2018-06-12T01:21:48.235Z,99928.10
2018-06-12T01:24:19.152Z,99926.77
2018-06-12T01:26:51.622Z,99934.86
2018-06-12T01:29:22.777Z,99930.92
2018-06-12T01:31:53.942Z,99938.66
2018-06-12T01:34:25.176Z,99922.13
2018-06-12T01:36:56.064Z,99927.09
2018-06-12T01:39:26.901Z,99927.38
2018-06-12T01:41:57.922Z,99923.85
2018-06-12T01:44:29.023Z,99929.70
2018-06-12T01:47:00.410Z,99921.74
2018-06-12T01:49:31.635Z,99922.16
2018-06-12T01:52:02.617Z,99923.02
2018-06-12T01:54:33.790Z,99923.15
2018-06-12T01:57:04.344Z,99922.51
2018-06-12T01:59:35.412Z,99917.23
2018-06-12T02:02:06.557Z,99920.97
2018-06-12T02:04:37.625Z,99913.62
2018-06-12T02:07:08.583Z,99910.73
2018-06-12T02:09:39.475Z,99910.70
2018-06-12T02:12:10.636Z,99904.34
2018-06-12T02:14:41.719Z,99896.95
2018-06-12T02:17:12.912Z,99896.22
2018-06-12T02:19:43.998Z,99897.17
2018-06-12T02:22:16.141Z,99893.27
2018-06-12T02:24:47.013Z,99901.03
2018-06-12T02:27:17.918Z,99888.75
2018-06-12T02:29:48.643Z,99888.33
2018-06-12T02:32:19.741Z,99887.02
2018-06-12T02:34:50.665Z,99888.43
2018-06-12T02:37:21.690Z,99885.70
2018-06-12T02:39:52.700Z,99881.20
2018-06-12T02:42:23.830Z,99884.20
2018-06-12T02:44:54.631Z,99877.95
2018-06-12T02:47:25.795Z,99883.51
2018-06-12T02:49:56.784Z,99886.73
2018-06-12T02:52:27.992Z,99884.44
2018-06-12T02:54:59.840Z,99878.11
2018-06-12T02:57:30.985Z,99883.45
2018-06-12T03:00:01.700Z,99881.50
2018-06-12T03:02:32.683Z,99877.95
2018-06-12T03:05:03.746Z,99875.81
2018-06-12T03:07:34.762Z,99876.42
2018-06-12T03:10:05.862Z,99873.35
2018-06-12T03:12:36.948Z,99872.27
2018-06-12T03:15:08.121Z,99870.95
2018-06-12T03:17:39.060Z,99877.70
2018-06-12T03:20:10.190Z,99878.22
2018-06-12T03:22:41.221Z,99879.75
2018-06-12T03:25:12.189Z,99877.64
2018-06-12T03:27:42.997Z,99881.89
2018-06-12T03:30:14.140Z,99879.39
2018-06-12T03:32:45.240Z,99879.87
2018-06-12T03:35:16.209Z,99878.81
2018-06-12T03:37:48.303Z,99870.41
2018-06-12T03:40:19.435Z,99869.44
2018-06-12T03:42:50.377Z,99872.30
2018-06-12T03:45:21.311Z,99880.25
2018-06-12T03:47:52.282Z,99875.30
2018-06-12T03:50:23.483Z,99876.70
2018-06-12T03:52:54.619Z,99871.06
2018-06-12T03:55:25.583Z,99868.63
2018-06-12T03:57:56.726Z,99873.52
2018-06-12T04:00:27.938Z,99872.88
2018-06-12T04:03:00.050Z,99866.90
2018-06-12T04:05:31.110Z,99869.24
2018-06-12T04:08:02.023Z,99872.77
2018-06-12T04:10:33.021Z,99870.00
2018-06-12T04:13:04.174Z,99865.73
2018-06-12T04:15:35.193Z,99863.16
2018-06-12T04:18:06.156Z,99867.14
2018-06-12T04:20:37.038Z,99860.18
2018-06-12T04:23:08.099Z,99860.64
2018-06-12T04:25:38.967Z,99865.69
2018-06-12T04:28:10.099Z,99870.99
2018-06-12T04:30:41.095Z,99869.07
2018-06-12T04:33:12.282Z,99873.00
2018-06-12T04:35:43.255Z,99878.63
2018-06-12T04:38:14.333Z,99879.33
2018-06-12T04:40:45.458Z,99886.67
2018-06-12T04:43:16.565Z,99886.30
2018-06-12T04:45:47.583Z,99888.12
2018-06-12T04:48:18.724Z,99881.78
2018-06-12T04:50:49.675Z,99894.59
2018-06-12T04:53:20.739Z,99886.65
2018-06-12T04:55:51.809Z,99891.22
2018-06-12T04:58:22.982Z,99892.80
2018-06-12T05:00:53.696Z,99895.80
2018-06-12T05:03:24.204Z,99889.48
2018-06-12T05:05:55.184Z,99891.44
2018-06-12T05:08:29.651Z,99886.48
2018-06-12T05:11:02.503Z,99890.55
2018-06-12T05:13:33.703Z,99895.34
2018-06-12T05:16:04.732Z,99893.58
2018-06-12T05:18:35.907Z,99890.48
2018-06-12T05:21:06.742Z,99895.82
2018-06-12T05:23:37.268Z,99897.50
2018-06-12T05:26:08.844Z,99899.38
2018-06-12T05:28:39.529Z,99899.14
2018-06-12T05:31:10.533Z,99903.95
2018-06-12T05:33:41.622Z,99898.98
2018-06-12T05:36:12.272Z,99902.59
2018-06-12T05:38:43.293Z,99902.13
2018-06-12T05:41:14.431Z,99903.95
2018-06-12T05:43:45.409Z,99906.19
2018-06-12T05:46:16.307Z,99905.25
2018-06-12T05:48:47.475Z,99899.78
2018-06-12T05:51:18.414Z,99911.86
2018-06-12T05:53:50.632Z,99918.86
2018-06-12T05:56:21.609Z,99919.67
2018-06-12T05:58:52.689Z,99923.35
2018-06-12T06:01:23.929Z,99922.36
2018-06-12T06:03:55.014Z,99918.86
2018-06-12T06:06:26.370Z,99918.73
2018-06-12T06:08:57.405Z,99925.09
2018-06-12T06:11:28.571Z,99921.83
2018-06-12T06:14:00.319Z,99920.33
2018-06-12T06:16:31.452Z,99924.34
2018-06-12T06:19:03.591Z,99917.16
2018-06-12T06:21:34.601Z,99921.30
2018-06-12T06:24:05.786Z,99924.23
2018-06-12T06:26:36.880Z,99923.30
2018-06-12T06:29:08.157Z,99921.61
2018-06-12T06:31:39.543Z,99926.70
2018-06-12T06:34:10.742Z,99926.05
2018-06-12T06:36:41.229Z,99929.23
2018-06-12T06:39:12.089Z,99938.59
2018-06-12T06:41:43.107Z,99928.88
2018-06-12T06:44:14.310Z,99926.97
2018-06-12T06:46:45.434Z,99931.94
2018-06-12T06:49:18.079Z,99934.85
2018-06-12T06:51:49.065Z,99928.68
2018-06-12T06:54:21.064Z,99929.94
2018-06-12T06:56:51.937Z,99929.95
2018-06-12T06:59:23.114Z,99925.47
2018-06-12T07:01:54.044Z,99935.34
2018-06-12T07:04:25.231Z,99930.33
2018-06-12T07:06:56.403Z,99932.74
2018-06-12T07:09:27.511Z,99930.02
2018-06-12T07:11:58.476Z,99928.88
2018-06-12T07:14:30.094Z,99931.45
2018-06-12T07:17:00.926Z,99933.91
2018-06-12T07:19:32.177Z,99935.89
2018-06-12T07:22:03.431Z,99933.19
2018-06-12T07:24:34.681Z,99933.70
2018-06-12T07:27:05.787Z,99932.02
2018-06-12T07:29:36.722Z,99935.62
2018-06-12T07:32:07.911Z,99935.57
2018-06-12T07:34:38.985Z,99935.02
2018-06-12T07:37:10.073Z,99944.59
2018-06-12T07:39:41.183Z,99937.55
2018-06-12T07:42:12.153Z,99943.28
2018-06-12T07:44:43.164Z,99940.71
2018-06-12T07:47:13.842Z,99947.36
2018-06-12T07:49:44.880Z,99953.11
2018-06-12T07:52:15.793Z,99942.63
2018-06-12T07:54:46.818Z,99941.45
2018-06-12T07:57:18.025Z,99944.26
2018-06-12T07:59:49.152Z,99943.56
2018-06-12T08:02:20.289Z,99945.56
2018-06-12T08:04:51.439Z,99946.91
2018-06-12T08:07:22.431Z,99938.32
2018-06-12T08:09:53.482Z,99946.50
2018-06-12T08:12:24.561Z,99944.41
2018-06-12T08:14:55.690Z,99950.00
2018-06-12T08:17:26.875Z,99948.82
2018-06-12T08:19:58.026Z,99945.23
2018-06-12T08:22:29.102Z,99948.80
2018-06-12T08:25:00.666Z,99945.62
2018-06-12T08:27:31.717Z,99949.78
2018-06-12T08:30:03.014Z,99950.20
2018-06-12T08:32:33.888Z,99946.84
2018-06-12T08:35:05.205Z,99947.19
2018-06-12T08:37:36.314Z,99948.75
2018-06-12T08:40:07.665Z,99952.07
2018-06-12T08:42:38.669Z,99951.50
2018-06-12T08:45:10.803Z,99952.41
2018-06-12T08:47:41.900Z,99959.53
2018-06-12T08:50:13.127Z,99954.75
2018-06-12T08:52:44.346Z,99953.35
2018-06-12T08:55:15.450Z,99956.77
2018-06-12T08:57:46.414Z,99959.58
2018-06-12T09:00:17.605Z,99955.28
2018-06-12T09:02:48.213Z,99960.28
2018-06-12T09:05:19.301Z,99961.48
2018-06-12T09:07:50.888Z,99958.73
2018-06-12T09:10:21.822Z,99958.08
2018-06-12T09:12:52.924Z,99960.20
2018-06-12T09:15:25.097Z,99966.42
2018-06-12T09:17:57.248Z,99962.62
2018-06-12T09:20:28.356Z,99965.80
2018-06-12T09:22:59.330Z,99963.79
2018-06-12T09:25:30.281Z,99965.99
2018-06-12T09:28:01.092Z,99968.94
2018-06-12T09:30:32.154Z,99968.48
2018-06-12T09:33:03.203Z,99968.50
2018-06-12T09:35:34.271Z,99966.75
2018-06-12T09:38:05.477Z,99979.16
2018-06-12T09:40:36.576Z,99979.69
2018-06-12T09:43:07.695Z,99979.62
2018-06-12T09:45:38.842Z,99982.89
2018-06-12T09:48:09.885Z,99991.37
2018-06-12T09:50:41.133Z,99993.22
2018-06-12T09:53:12.204Z,99986.02
2018-06-12T09:55:43.302Z,99988.56
2018-06-12T09:58:14.524Z,99988.49
2018-06-12T10:00:50.559Z,99991.48
2018-06-12T10:03:21.635Z,99991.00
2018-06-12T10:05:52.595Z,99991.80
2018-06-12T10:08:23.555Z,99991.19
2018-06-12T10:10:54.607Z,99993.87
2018-06-12T10:13:25.537Z,99986.13
2018-06-12T10:15:56.627Z,99985.39
2018-06-12T10:18:28.191Z,99980.95
2018-06-12T10:20:59.266Z,99973.43
2018-06-12T10:23:30.288Z,99973.68
2018-06-12T10:26:01.319Z,99970.98
2018-06-12T10:28:32.431Z,99977.05
2018-06-12T10:31:03.530Z,99980.54
2018-06-12T10:33:34.645Z,99980.15
2018-06-12T10:36:05.765Z,99974.57
2018-06-12T10:38:36.876Z,99983.01
2018-06-12T10:41:08.988Z,99985.78
2018-06-12T10:43:39.962Z,99986.30
2018-06-12T10:46:10.871Z,99991.73
2018-06-12T10:48:42.032Z,99989.78
2018-06-12T10:51:13.182Z,99986.43
2018-06-12T10:53:44.419Z,99987.33
2018-06-12T10:56:15.556Z,99990.27
2018-06-12T10:58:46.526Z,99992.29
2018-06-12T11:01:17.875Z,99989.91
2018-06-12T11:03:49.035Z,99993.52
2018-06-12T11:06:20.236Z,99987.25
2018-06-12T11:08:51.350Z,99986.19
2018-06-12T11:11:22.487Z,99985.20
2018-06-12T11:13:54.255Z,99984.19
2018-06-12T11:16:25.477Z,99973.56
2018-06-12T11:18:56.507Z,99972.86
2018-06-12T11:21:27.919Z,99964.55
2018-06-12T11:23:59.035Z,99969.91
2018-06-12T11:26:29.845Z,99966.72
2018-06-12T11:29:01.038Z,99963.91
2018-06-12T11:31:32.701Z,99962.73
2018-06-12T11:34:03.855Z,99960.36
2018-06-12T11:36:34.944Z,99962.45
2018-06-12T11:39:08.314Z,99970.59
2018-06-12T11:41:39.379Z,99965.92
2018-06-12T11:44:10.320Z,99968.72
2018-06-12T11:46:41.373Z,99972.98
2018-06-12T11:49:13.304Z,99978.18
2018-06-12T11:51:44.576Z,99980.03
2018-06-12T11:54:16.837Z,99971.77
2018-06-12T11:56:47.935Z,99971.52
2018-06-12T11:59:19.023Z,99962.40
2018-06-12T12:01:50.629Z,99954.48
2018-06-12T12:04:21.696Z,99943.29
2018-06-12T12:06:52.925Z,99940.28
2018-06-12T12:09:24.011Z,99931.80
2018-06-12T12:11:55.265Z,99942.79
2018-06-12T12:14:26.396Z,99947.59
2018-06-12T12:16:57.411Z,99941.88
2018-06-12T12:19:28.551Z,99936.81
2018-06-12T12:22:00.250Z,99937.90
2018-06-12T12:24:31.304Z,99936.95
2018-06-12T12:27:02.361Z,99937.61
2018-06-12T12:29:33.505Z,99928.44
2018-06-12T12:32:04.683Z,99918.64
2018-06-12T12:34:35.776Z,99905.88
2018-06-12T12:37:07.026Z,99907.19
2018-06-12T12:39:37.975Z,99910.02
2018-06-12T12:42:10.489Z,99912.08
2018-06-12T12:44:41.687Z,99912.08
2018-06-12T12:47:12.862Z,99907.94
2018-06-12T12:49:43.927Z,99912.36
2018-06-12T12:52:15.106Z,99911.72
2018-06-12T12:54:47.003Z,99907.39
2018-06-12T12:57:18.092Z,99905.98
2018-06-12T12:59:48.898Z,99914.83
2018-06-12T13:02:21.258Z,99917.89
2018-06-12T13:04:52.536Z,99918.25
2018-06-12T13:07:24.082Z,99925.13
2018-06-12T13:09:55.184Z,99917.73
2018-06-12T13:12:26.228Z,99910.45
2018-06-12T13:14:57.335Z,99914.88
2018-06-12T13:17:28.453Z,99917.22
2018-06-12T13:19:59.709Z,99914.59
2018-06-12T13:22:30.790Z,99920.84
2018-06-12T13:25:02.046Z,99923.79
2018-06-12T13:27:33.849Z,99921.88
2018-06-12T13:30:05.013Z,99922.16
2018-06-12T13:32:35.900Z,99928.93
2018-06-12T13:35:07.096Z,99932.59
2018-06-12T13:37:39.079Z,99928.53
2018-06-12T13:40:10.486Z,99926.02
2018-06-12T13:42:41.579Z,99927.65
2018-06-12T13:45:13.143Z,99921.28
2018-06-12T13:47:44.321Z,99923.20
2018-06-12T13:50:15.435Z,99918.84
2018-06-12T13:52:46.551Z,99918.45
2018-06-12T13:55:17.574Z,99910.55
2018-06-12T13:57:48.515Z,99915.72
2018-06-12T14:00:19.536Z,99915.02
2018-06-12T14:02:50.389Z,99916.95
2018-06-12T14:05:21.445Z,99908.47
2018-06-12T14:07:52.559Z,99901.45
2018-06-12T14:10:24.236Z,99903.06
2018-06-12T14:12:55.129Z,99906.48
2018-06-12T14:15:26.220Z,99912.16
2018-06-12T14:17:57.307Z,99909.66
2018-06-12T14:20:28.525Z,99911.56
2018-06-12T14:22:59.718Z,99910.37
2018-06-12T14:25:30.921Z,99904.08
2018-06-12T14:28:02.932Z,99905.98
2018-06-12T14:30:35.250Z,99901.73
2018-06-12T14:33:06.777Z,99908.20
2018-06-12T14:35:37.972Z,99915.32
2018-06-12T14:38:11.140Z,99913.98
2018-06-12T14:40:43.335Z,99912.89
2018-06-12T14:43:14.664Z,99914.55
2018-06-12T14:45:46.059Z,99902.48
2018-06-12T14:48:17.056Z,99909.04
2018-06-12T14:50:48.105Z,99906.89
2018-06-12T14:53:19.148Z,99908.02
2018-06-12T14:55:50.593Z,99906.99
2018-06-12T14:58:21.804Z,99914.67
2018-06-12T15:00:52.807Z,99909.81
2018-06-12T15:03:24.023Z,99896.92
2018-06-12T15:05:54.833Z,99895.48
2018-06-12T15:08:27.058Z,99898.36
2018-06-12T15:10:58.047Z,99889.50
2018-06-12T15:13:29.068Z,99894.58
2018-06-12T15:16:00.181Z,99875.82
2018-06-12T15:18:31.452Z,99886.67
2018-06-12T15:21:02.577Z,99887.93
2018-06-12T15:23:34.473Z,99872.04
2018-06-12T15:26:05.174Z,99882.81
2018-06-12T15:28:35.728Z,99882.14
2018-06-12T15:31:07.006Z,99884.52
2018-06-12T15:33:38.258Z,99878.85
2018-06-12T15:36:09.578Z,99883.33
2018-06-12T15:38:40.874Z,99880.99
2018-06-12T15:41:12.047Z,99886.32
2018-06-12T15:43:43.294Z,99881.63
2018-06-12T15:46:13.988Z,99882.03
2018-06-12T15:48:45.330Z,99882.86
2018-06-12T15:51:16.464Z,99883.80
2018-06-12T15:53:47.628Z,99889.64
2018-06-12T15:56:19.156Z,99886.79
2018-06-12T15:58:50.214Z,99889.13
2018-06-12T16:01:21.496Z,99882.25
2018-06-12T16:03:52.617Z,99884.62
2018-06-12T16:06:23.871Z,99879.09
2018-06-12T16:08:55.001Z,99877.34
2018-06-12T16:11:27.097Z,99881.66
2018-06-12T16:13:58.198Z,99874.02
2018-06-12T16:16:29.313Z,99871.00
2018-06-12T16:19:00.742Z,99874.88
2018-06-12T16:21:32.080Z,99878.50
2018-06-12T16:24:03.276Z,99878.31
2018-06-12T16:26:34.549Z,99888.15
2018-06-12T16:29:05.519Z,99883.22
2018-06-12T16:31:37.359Z,99887.00
2018-06-12T16:34:08.420Z,99887.14
2018-06-12T16:36:39.617Z,99889.93
2018-06-12T16:39:10.757Z,99887.31
2018-06-12T16:41:41.981Z,99882.14
2018-06-12T16:44:13.047Z,99888.16
2018-06-12T16:46:44.267Z,99882.80
2018-06-12T16:49:15.426Z,99893.59
2018-06-12T16:51:46.459Z,99896.35
2018-06-12T16:54:17.476Z,99891.17
2018-06-12T16:56:49.179Z,99890.27
2018-06-12T16:59:20.159Z,99883.15
2018-06-12T17:01:51.356Z,99894.88
2018-06-12T17:04:22.790Z,99899.99
2018-06-12T17:06:54.065Z,99908.35
2018-06-12T17:09:25.204Z,99913.99
2018-06-12T17:11:56.341Z,99912.30
2018-06-12T17:14:27.509Z,99905.90
2018-06-12T17:16:58.694Z,99909.23
2018-06-12T17:19:30.646Z,99897.17
2018-06-12T17:22:01.855Z,99897.72
2018-06-12T17:24:32.992Z,99900.41
2018-06-12T17:27:04.232Z,99895.34
2018-06-12T17:29:35.578Z,99902.96
2018-06-12T17:32:06.964Z,99904.46
2018-06-12T17:34:38.055Z,99907.75
2018-06-12T17:37:09.316Z,99913.81
2018-06-12T17:39:40.581Z,99914.42
2018-06-12T17:42:13.053Z,99914.38
2018-06-12T17:44:44.142Z,99925.66
2018-06-12T17:47:15.404Z,99918.67
2018-06-12T17:49:46.488Z,99935.63
2018-06-12T17:52:17.703Z,99944.23
2018-06-12T17:54:49.779Z,99949.28
2018-06-12T17:57:21.356Z,99952.58
2018-06-12T17:59:52.470Z,99955.77
2018-06-12T18:02:24.525Z,99951.14
2018-06-12T18:04:55.958Z,99957.20
2018-06-12T18:07:26.805Z,99950.91
2018-06-12T18:09:57.930Z,99961.45
2018-06-12T18:12:29.456Z,99963.22
2018-06-12T18:15:01.034Z,99963.87
2018-06-12T18:17:33.746Z,99956.28
2018-06-12T18:20:04.910Z,99962.83
2018-06-12T18:22:36.209Z,99964.50
2018-06-12T18:25:07.701Z,99963.23
2018-06-12T18:27:39.052Z,99966.54
2018-06-12T18:30:10.245Z,99970.20
2018-06-12T18:32:41.771Z,99966.10
2018-06-12T18:35:12.821Z,99974.64
2018-06-12T18:37:44.018Z,99967.05
2018-06-12T18:40:15.237Z,99963.81
2018-06-12T18:42:46.427Z,99955.66
2018-06-12T18:45:17.603Z,99969.41
2018-06-12T18:47:48.801Z,99963.88
2018-06-12T18:50:20.038Z,99966.94
2018-06-12T18:52:51.233Z,99959.63
2018-06-12T18:55:22.362Z,99964.97
2018-06-12T18:57:54.986Z,99968.39
2018-06-12T19:00:26.284Z,99973.59
2018-06-12T19:02:57.262Z,99974.17
2018-06-12T19:05:28.166Z,99971.95
2018-06-12T19:07:59.118Z,99972.39
2018-06-12T19:10:30.010Z,99974.05
2018-06-12T19:13:00.935Z,99982.67
2018-06-12T19:15:31.881Z,99982.56
2018-06-12T19:18:02.736Z,99984.06
2018-06-12T19:20:33.632Z,99983.84
2018-06-12T19:23:04.685Z,99980.09
2018-06-12T19:25:35.622Z,99973.14
2018-06-12T19:28:06.581Z,99983.63
2018-06-12T19:30:37.737Z,99986.97
2018-06-12T19:33:23.157Z,99986.97
2018-06-12T19:35:53.942Z,99991.30
2018-06-12T19:38:24.892Z,100002.09
2018-06-12T19:40:55.761Z,99995.73
2018-06-12T19:43:26.878Z,100000.52
2018-06-12T19:45:57.769Z,100006.41
2018-06-12T19:48:28.716Z,100007.56
2018-06-12T19:50:59.803Z,100005.39
2018-06-12T19:53:31.907Z,100004.48
2018-06-12T19:56:03.286Z,100005.47
2018-06-12T19:58:34.190Z,100004.73
2018-06-12T20:01:05.082Z,100011.16
2018-06-12T20:03:36.164Z,100017.93
2018-06-12T20:06:07.486Z,100018.41
2018-06-12T20:08:40.660Z,100018.67
2018-06-12T20:11:11.483Z,100006.81
2018-06-12T20:13:42.789Z,100015.44
2018-06-12T20:16:13.743Z,100013.20
2018-06-12T20:18:44.549Z,100017.89
2018-06-12T20:21:15.807Z,100017.70
2018-06-12T20:23:48.209Z,100023.33
2018-06-12T20:26:19.217Z,100023.63
2018-06-12T20:28:50.451Z,100023.54
2018-06-12T20:31:21.567Z,100023.89
2018-06-12T20:33:53.817Z,100035.27
2018-06-12T20:36:24.814Z,100027.70
2018-06-12T20:38:56.010Z,100032.67
2018-06-12T20:41:27.021Z,100032.93
2018-06-12T20:43:57.848Z,100036.97
2018-06-12T20:46:28.793Z,100043.16
2018-06-12T20:48:59.628Z,100043.79
2018-06-12T20:51:30.849Z,100038.64
2018-06-12T20:54:01.951Z,100040.70
2018-06-12T20:56:32.798Z,100053.03
2018-06-12T20:59:03.667Z,100055.38
2018-06-12T21:01:34.701Z,100059.19
2018-06-12T21:04:06.129Z,100056.44
2018-06-12T21:06:36.960Z,100053.41
2018-06-12T21:09:08.068Z,100055.11
2018-06-12T21:11:38.750Z,100055.80
2018-06-12T21:14:09.889Z,100061.71
2018-06-12T21:16:41.068Z,100061.80
2018-06-12T21:19:12.142Z,100058.80
2018-06-12T21:21:42.614Z,100060.25
2018-06-12T21:24:14.039Z,100054.81
2018-06-12T21:26:45.233Z,100059.09
2018-06-12T21:29:16.195Z,100061.11
2018-06-12T21:31:47.182Z,100055.78
2018-06-12T21:34:19.120Z,100061.37
2018-06-12T21:36:53.102Z,100064.09
2018-06-12T21:39:24.538Z,100069.03
2018-06-12T21:41:55.364Z,100074.02
2018-06-12T21:44:26.106Z,100078.84
2018-06-12T21:46:56.899Z,100071.84
2018-06-12T21:49:27.794Z,100078.59
2018-06-12T21:51:58.609Z,100071.89
2018-06-12T21:54:29.685Z,100081.61
2018-06-12T21:57:00.786Z,100077.23
2018-06-12T21:59:31.564Z,100076.28
2018-06-12T22:02:02.378Z,100080.20
2018-06-12T22:04:33.141Z,100074.65
2018-06-12T22:07:03.953Z,100082.50
2018-06-12T22:09:35.303Z,100078.91
2018-06-12T22:12:06.444Z,100073.31
2018-06-12T22:14:37.591Z,100076.91
2018-06-12T22:17:08.337Z,100072.80
2018-06-12T22:19:39.988Z,100069.92
2018-06-12T22:22:10.519Z,100082.64
2018-06-12T22:24:41.033Z,100088.48
2018-06-12T22:27:11.515Z,100087.97
2018-06-12T22:29:43.411Z,100087.20
2018-06-12T22:32:14.150Z,100089.04
2018-06-12T22:34:46.190Z,100091.09
2018-06-12T22:37:17.206Z,100087.73
2018-06-12T22:39:47.988Z,100086.21
2018-06-12T22:42:18.971Z,100084.90
2018-06-12T22:44:50.027Z,100092.88
2018-06-12T22:47:20.940Z,100087.47
2018-06-12T22:49:51.889Z,100090.34
2018-06-12T22:52:22.609Z,100095.19
2018-06-12T22:54:53.571Z,100092.84
2018-06-12T22:57:24.857Z,100096.59
2018-06-12T22:59:55.874Z,100092.69
2018-06-12T23:02:27.070Z,100090.08
2018-06-12T23:04:58.186Z,100100.59
2018-06-12T23:07:29.286Z,100102.35
2018-06-12T23:10:01.480Z,100105.67
2018-06-12T23:12:32.577Z,100106.05
2018-06-12T23:15:03.814Z,100104.30
2018-06-12T23:17:34.896Z,100098.88
2018-06-12T23:20:23.502Z,100106.31
2018-06-12T23:22:54.573Z,100113.36
2018-06-12T23:25:25.731Z,100115.13
2018-06-12T23:27:56.774Z,100110.65
2018-06-12T23:30:28.680Z,100107.69
2018-06-12T23:32:59.697Z,100099.50
2018-06-12T23:35:32.509Z,100106.38
2018-06-12T23:38:03.597Z,100105.84
2018-06-12T23:40:34.500Z,100108.48
2018-06-12T23:43:05.440Z,100110.75
2018-06-12T23:45:36.133Z,100109.92
2018-06-12T23:48:07.255Z,100112.84
2018-06-12T23:50:39.135Z,100116.16
2018-06-12T23:53:10.192Z,100110.70
2018-06-12T23:55:41.265Z,100117.71
2018-06-12T23:58:12.394Z,100113.16
